createdAt,value
2022-08-26T00:00:58.471Z,21.97
2022-08-26T00:03:24.861Z,21.82
2022-08-26T00:05:51.231Z,21.68
2022-08-26T00:08:18.184Z,21.59
2022-08-26T00:10:44.560Z,21.46
2022-08-26T00:13:10.972Z,21.50
2022-08-26T00:15:37.667Z,21.36
2022-08-26T00:18:04.406Z,21.27
2022-08-26T00:20:43.299Z,21.25
2022-08-26T00:23:09.660Z,21.34
2022-08-26T00:25:36.261Z,21.39
2022-08-26T00:28:08.968Z,21.39
2022-08-26T00:30:37.464Z,21.37
2022-08-26T00:33:05.523Z,21.26
2022-08-26T00:35:32.404Z,21.24
2022-08-26T00:38:00.143Z,21.19
2022-08-26T00:40:32.411Z,21.31
2022-08-26T00:42:59.645Z,21.33
2022-08-26T00:45:26.127Z,21.31
2022-08-26T00:48:00.139Z,21.36
2022-08-26T00:50:29.501Z,21.49
2022-08-26T00:52:56.078Z,21.54
2022-08-26T00:55:27.518Z,21.55
2022-08-26T00:58:04.743Z,21.52
2022-08-26T01:00:31.121Z,21.53
2022-08-26T01:02:57.686Z,21.51
2022-08-26T01:05:24.224Z,21.42
2022-08-26T01:07:50.587Z,21.34
2022-08-26T01:10:18.077Z,21.30
2022-08-26T01:13:13.913Z,21.26
2022-08-26T01:15:44.890Z,21.32
2022-08-26T01:18:11.321Z,21.30
2022-08-26T01:20:41.452Z,21.35
2022-08-26T01:23:08.703Z,21.36
2022-08-26T01:25:37.063Z,21.42
2022-08-26T01:28:07.159Z,21.45
2022-08-26T01:30:33.567Z,21.43
2022-08-26T01:33:00.980Z,21.40
2022-08-26T01:35:27.598Z,21.48
2022-08-26T01:38:02.241Z,21.51
2022-08-26T01:40:32.002Z,21.66
2022-08-26T01:42:58.818Z,21.63
2022-08-26T01:45:25.876Z,21.60
2022-08-26T01:47:57.176Z,21.53
2022-08-26T01:50:30.426Z,21.42
2022-08-26T01:52:57.633Z,21.30
2022-08-26T01:55:29.306Z,21.20
2022-08-26T01:57:59.128Z,21.17
2022-08-26T02:00:26.623Z,21.19
2022-08-26T02:03:16.610Z,21.08
2022-08-26T02:05:53.303Z,21.12
2022-08-26T02:08:24.853Z,21.23
2022-08-26T02:10:51.852Z,21.17
2022-08-26T02:13:21.274Z,21.27
2022-08-26T02:15:49.129Z,21.20
2022-08-26T02:18:16.050Z,21.18
2022-08-26T02:20:42.810Z,21.08
2022-08-26T02:23:09.404Z,21.04
2022-08-26T02:25:49.672Z,21.03
2022-08-26T02:28:17.590Z,20.99
2022-08-26T02:30:47.090Z,21.02
2022-08-26T02:33:13.456Z,20.99
2022-08-26T02:35:39.844Z,21.03
2022-08-26T02:38:10.999Z,21.03
2022-08-26T02:40:40.456Z,21.08
2022-08-26T02:43:08.594Z,21.05
2022-08-26T02:45:35.226Z,21.06
2022-08-26T02:48:03.731Z,21.05
2022-08-26T02:50:30.172Z,21.13
2022-08-26T02:55:24.696Z,21.16
2022-08-26T02:57:52.008Z,21.18
2022-08-26T03:00:18.431Z,21.19
2022-08-26T03:02:45.052Z,21.18
2022-08-26T03:05:11.690Z,21.16
2022-08-26T03:07:38.066Z,21.12
2022-08-26T03:10:08.389Z,21.12
2022-08-26T03:12:35.422Z,21.04
2022-08-26T03:15:01.832Z,21.12
2022-08-26T03:17:28.230Z,21.07
2022-08-26T03:19:57.234Z,21.06
2022-08-26T03:22:23.867Z,20.91
2022-08-26T03:24:50.452Z,20.89
2022-08-26T03:27:17.603Z,20.85
2022-08-26T03:30:02.663Z,20.81
2022-08-26T03:32:29.015Z,20.79
2022-08-26T03:34:56.391Z,20.74
2022-08-26T03:37:22.762Z,20.62
2022-08-26T03:39:49.180Z,20.55
2022-08-26T03:42:15.862Z,20.54
2022-08-26T03:44:42.375Z,20.50
2022-08-26T03:47:08.772Z,20.39
2022-08-26T03:49:35.819Z,20.22
2022-08-26T03:52:02.535Z,19.99
2022-08-26T03:54:30.120Z,19.88
2022-08-26T03:56:56.476Z,19.89
2022-08-26T03:59:23.658Z,19.83
2022-08-26T04:01:50.960Z,19.85
2022-08-26T04:04:17.826Z,19.87
2022-08-26T04:06:44.752Z,19.81
2022-08-26T04:09:17.908Z,19.83
2022-08-26T04:11:44.408Z,19.75
2022-08-26T04:14:13.373Z,19.80
2022-08-26T04:16:40.122Z,19.59
2022-08-26T04:19:06.600Z,19.55
2022-08-26T04:21:33.850Z,19.61
2022-08-26T04:24:00.232Z,19.71
2022-08-26T04:26:30.893Z,19.60
2022-08-26T04:28:58.627Z,19.79
2022-08-26T04:31:26.243Z,19.73
2022-08-26T04:33:53.007Z,19.74
2022-08-26T04:36:19.921Z,19.55
2022-08-26T04:38:49.544Z,19.50
2022-08-26T04:41:18.305Z,19.49
2022-08-26T04:43:44.669Z,19.55
2022-08-26T04:46:12.985Z,19.55
2022-08-26T04:48:40.835Z,19.64
2022-08-26T04:51:07.219Z,19.83
2022-08-26T04:53:34.781Z,19.80
2022-08-26T04:56:01.238Z,19.86
2022-08-26T04:58:30.198Z,19.93
2022-08-26T05:00:56.662Z,19.76
2022-08-26T05:03:23.626Z,19.74
2022-08-26T05:05:50.122Z,19.76
2022-08-26T05:08:17.309Z,19.84
2022-08-26T05:10:46.122Z,19.98
2022-08-26T05:13:15.381Z,20.08
2022-08-26T05:15:42.178Z,20.37
2022-08-26T05:18:08.780Z,20.47
2022-08-26T05:20:41.375Z,20.60
2022-08-26T05:23:07.973Z,20.75
2022-08-26T05:25:38.703Z,20.92
2022-08-26T05:28:06.098Z,20.91
2022-08-26T05:30:32.658Z,20.98
2022-08-26T05:33:01.824Z,21.18
2022-08-26T05:37:58.769Z,21.12
2022-08-26T05:40:25.518Z,21.26
2022-08-26T05:42:52.945Z,21.34
2022-08-26T05:45:19.857Z,21.41
2022-08-26T05:47:46.317Z,21.52
2022-08-26T05:50:13.811Z,21.54
2022-08-26T05:52:40.739Z,21.45
2022-08-26T05:55:07.186Z,21.55
2022-08-26T05:57:37.440Z,21.68
2022-08-26T06:00:06.609Z,21.75
2022-08-26T06:02:33.028Z,21.85
2022-08-26T06:04:59.396Z,21.85
2022-08-26T06:07:45.749Z,21.88
2022-08-26T06:10:31.424Z,21.90
2022-08-26T06:13:00.747Z,22.06
2022-08-26T06:15:31.149Z,22.35
2022-08-26T06:17:57.810Z,22.51
2022-08-26T06:20:24.162Z,22.70
2022-08-26T06:23:11.497Z,22.87
2022-08-26T06:25:38.507Z,23.03
2022-08-26T06:28:05.246Z,23.06
2022-08-26T06:30:32.403Z,23.13
2022-08-26T06:32:59.143Z,23.07
2022-08-26T06:35:26.424Z,23.27
2022-08-26T06:37:53.043Z,23.47
2022-08-26T06:40:20.917Z,23.68
2022-08-26T06:42:47.314Z,23.71
2022-08-26T06:45:14.079Z,23.78
2022-08-26T06:47:40.439Z,23.81
2022-08-26T06:50:06.978Z,23.92
2022-08-26T06:52:33.333Z,23.92
2022-08-26T06:55:01.095Z,24.06
2022-08-26T06:57:28.558Z,24.21
2022-08-26T06:59:58.023Z,24.26
2022-08-26T07:02:24.901Z,24.15
2022-08-26T07:04:56.852Z,24.09
2022-08-26T07:07:23.329Z,24.24
2022-08-26T07:09:52.639Z,24.35
2022-08-26T07:12:19.150Z,24.35
2022-08-26T07:14:47.430Z,24.30
2022-08-26T07:17:14.854Z,24.35
2022-08-26T07:19:41.206Z,24.47
2022-08-26T07:22:08.547Z,24.54
2022-08-26T07:24:37.838Z,24.57
2022-08-26T07:27:05.817Z,24.51
2022-08-26T07:29:32.337Z,24.69
2022-08-26T07:31:58.701Z,24.77
2022-08-26T07:34:26.456Z,25.05
2022-08-26T07:36:52.994Z,25.15
2022-08-26T07:39:19.479Z,25.30
2022-08-26T07:41:47.317Z,25.25
2022-08-26T07:44:14.139Z,25.23
2022-08-26T07:46:40.979Z,25.29
2022-08-26T07:49:11.082Z,25.26
2022-08-26T07:51:37.674Z,25.48
2022-08-26T07:54:04.507Z,25.76
2022-08-26T07:56:30.945Z,25.92
2022-08-26T07:58:57.754Z,26.17
2022-08-26T08:01:24.686Z,26.53
2022-08-26T08:03:52.339Z,26.34
2022-08-26T08:06:19.521Z,26.61
2022-08-26T08:08:45.936Z,26.81
2022-08-26T08:11:12.281Z,27.05
2022-08-26T08:13:38.661Z,26.92
2022-08-26T08:16:05.091Z,26.86
2022-08-26T08:18:31.463Z,27.16
2022-08-26T08:21:10.812Z,27.22
2022-08-26T08:23:45.792Z,27.34
2022-08-26T08:26:12.544Z,27.77
2022-08-26T08:28:39.618Z,27.89
2022-08-26T08:31:08.003Z,27.35
2022-08-26T08:33:34.987Z,27.43
2022-08-26T08:36:01.401Z,27.36
2022-08-26T08:38:28.058Z,27.43
2022-08-26T08:40:54.412Z,27.28
2022-08-26T08:43:30.471Z,27.44
2022-08-26T08:45:58.226Z,27.72
2022-08-26T08:48:28.025Z,27.92
2022-08-26T08:50:55.800Z,27.83
2022-08-26T08:53:35.574Z,27.80
2022-08-26T08:56:09.200Z,27.88
2022-08-26T08:58:41.453Z,27.68
2022-08-26T09:01:11.977Z,27.84
2022-08-26T09:03:42.081Z,28.08
2022-08-26T09:06:16.948Z,27.52
2022-08-26T09:08:44.328Z,27.60
2022-08-26T09:11:10.950Z,27.84
2022-08-26T09:13:37.976Z,28.20
2022-08-26T09:16:10.039Z,28.26
2022-08-26T09:18:55.365Z,27.91
2022-08-26T09:21:25.408Z,28.01
2022-08-26T09:23:52.141Z,28.34
2022-08-26T09:26:37.996Z,28.21
2022-08-26T09:29:05.613Z,28.24
2022-08-26T09:31:34.102Z,28.46
2022-08-26T09:34:06.441Z,28.60
2022-08-26T09:36:43.877Z,28.46
2022-08-26T09:39:29.056Z,28.17
2022-08-26T09:42:22.442Z,28.16
2022-08-26T09:44:59.384Z,27.53
2022-08-26T09:47:27.919Z,27.13
2022-08-26T09:50:14.387Z,27.16
2022-08-26T09:52:42.957Z,27.87
2022-08-26T09:55:09.301Z,28.58
2022-08-26T09:57:36.684Z,28.22
2022-08-26T10:00:11.456Z,27.98
2022-08-26T10:02:38.215Z,27.89
2022-08-26T10:05:09.605Z,27.57
2022-08-26T10:07:43.485Z,28.12
2022-08-26T10:10:14.307Z,28.78
2022-08-26T10:12:43.148Z,28.61
2022-08-26T10:15:09.695Z,29.04
2022-08-26T10:17:39.833Z,29.15
2022-08-26T10:20:22.948Z,28.81
2022-08-26T10:22:57.273Z,28.34
2022-08-26T10:25:25.976Z,28.77
2022-08-26T10:28:04.720Z,29.20
2022-08-26T10:30:41.011Z,29.57
2022-08-26T10:33:10.400Z,29.93
2022-08-26T10:35:37.359Z,30.27
2022-08-26T10:38:14.376Z,30.85
2022-08-26T10:40:44.609Z,31.18
2022-08-26T10:43:27.147Z,31.08
2022-08-26T10:45:54.591Z,30.48
2022-08-26T10:48:35.571Z,30.49
2022-08-26T10:51:03.306Z,29.54
2022-08-26T10:53:32.645Z,29.49
2022-08-26T10:56:18.814Z,29.13
2022-08-26T10:58:54.798Z,29.15
2022-08-26T11:01:46.859Z,29.12
2022-08-26T11:04:35.010Z,29.19
2022-08-26T11:07:20.418Z,29.56
2022-08-26T11:09:48.026Z,29.09
2022-08-26T11:12:34.375Z,29.24
2022-08-26T11:15:02.135Z,29.41
2022-08-26T11:17:46.921Z,29.83
2022-08-26T11:20:22.570Z,30.90
2022-08-26T11:22:50.718Z,31.04
2022-08-26T11:25:18.300Z,30.53
2022-08-26T11:27:48.069Z,30.13
2022-08-26T11:30:19.606Z,30.14
2022-08-26T11:32:49.351Z,30.62
2022-08-26T11:35:19.451Z,31.24
2022-08-26T11:37:47.847Z,30.64
2022-08-26T11:40:15.532Z,30.12
2022-08-26T11:42:55.574Z,29.68
2022-08-26T11:45:24.939Z,30.19
2022-08-26T11:47:51.375Z,30.69
2022-08-26T11:50:17.675Z,30.31
2022-08-26T11:52:51.445Z,30.12
2022-08-26T11:55:17.811Z,29.67
2022-08-26T11:57:47.014Z,29.89
2022-08-26T12:00:22.267Z,30.04
2022-08-26T12:02:49.083Z,28.93
2022-08-26T12:05:17.153Z,29.30
2022-08-26T12:07:43.527Z,29.41
2022-08-26T12:10:11.139Z,29.26
2022-08-26T12:12:38.660Z,28.72
2022-08-26T12:15:06.224Z,27.85
2022-08-26T12:17:32.598Z,27.39
2022-08-26T12:19:58.972Z,27.32
2022-08-26T12:22:29.320Z,27.66
2022-08-26T12:24:56.959Z,28.56
2022-08-26T12:27:24.487Z,29.65
2022-08-26T12:30:00.915Z,29.89
2022-08-26T12:32:27.998Z,29.36
2022-08-26T12:34:55.160Z,29.85
2022-08-26T12:37:21.821Z,30.42
2022-08-26T12:39:49.116Z,30.83
2022-08-26T12:42:15.787Z,31.58
2022-08-26T12:44:54.054Z,31.60
2022-08-26T12:47:39.025Z,31.57
2022-08-26T12:50:10.136Z,31.29
2022-08-26T12:52:51.754Z,30.97
2022-08-26T12:55:19.599Z,30.34
2022-08-26T12:57:47.310Z,31.02
2022-08-26T13:00:26.280Z,31.42
2022-08-26T13:02:54.906Z,31.64
2022-08-26T13:05:28.713Z,32.08
2022-08-26T13:08:14.431Z,30.81
2022-08-26T13:10:42.091Z,29.83
2022-08-26T13:13:08.604Z,29.68
2022-08-26T13:15:35.094Z,29.78
2022-08-26T13:18:03.395Z,29.50
2022-08-26T13:20:30.987Z,29.19
2022-08-26T13:23:09.077Z,29.36
2022-08-26T13:25:35.507Z,29.87
2022-08-26T13:28:01.887Z,29.58
2022-08-26T13:30:28.255Z,28.94
2022-08-26T13:32:56.196Z,28.63
2022-08-26T13:35:23.111Z,28.07
2022-08-26T13:37:49.923Z,27.80
2022-08-26T13:40:16.342Z,27.73
2022-08-26T13:42:43.071Z,27.80
2022-08-26T13:45:16.385Z,27.70
2022-08-26T13:47:42.753Z,27.67
2022-08-26T13:50:09.178Z,27.80
2022-08-26T13:52:35.556Z,27.87
2022-08-26T13:55:02.065Z,28.11
2022-08-26T13:57:28.592Z,27.82
2022-08-26T13:59:56.468Z,27.76
2022-08-26T14:02:22.951Z,27.42
2022-08-26T14:04:49.317Z,27.28
2022-08-26T14:07:15.677Z,27.17
2022-08-26T14:09:42.097Z,27.15
2022-08-26T14:12:08.525Z,27.56
2022-08-26T14:14:34.957Z,27.85
2022-08-26T14:17:01.334Z,28.06
2022-08-26T14:19:31.174Z,28.03
2022-08-26T14:21:57.781Z,28.09
2022-08-26T14:24:24.373Z,28.29
2022-08-26T14:26:50.746Z,27.55
2022-08-26T14:29:17.181Z,26.73
2022-08-26T14:31:43.691Z,27.23
2022-08-26T14:34:10.107Z,27.25
2022-08-26T14:36:36.616Z,26.89
2022-08-26T14:39:07.066Z,27.00
2022-08-26T14:41:34.231Z,27.05
2022-08-26T14:44:01.946Z,26.92
2022-08-26T14:46:29.038Z,26.53
2022-08-26T14:48:57.439Z,26.63
2022-08-26T14:51:28.419Z,26.48
2022-08-26T14:54:12.905Z,26.33
2022-08-26T14:56:59.492Z,25.94
2022-08-26T14:59:29.764Z,25.46
2022-08-26T15:01:56.468Z,25.74
2022-08-26T15:04:23.444Z,25.91
2022-08-26T15:06:49.938Z,26.01
2022-08-26T15:09:16.335Z,26.09
2022-08-26T15:11:42.747Z,25.81
2022-08-26T15:14:14.827Z,25.67
2022-08-26T15:16:49.773Z,25.39
2022-08-26T15:19:16.366Z,25.47
2022-08-26T15:21:43.359Z,25.72
2022-08-26T15:24:11.963Z,25.69
2022-08-26T15:26:38.341Z,25.70
2022-08-26T15:29:05.376Z,25.88
2022-08-26T15:31:32.037Z,26.21
2022-08-26T15:33:59.823Z,26.06
2022-08-26T15:36:26.798Z,26.27
2022-08-26T15:38:53.379Z,26.06
2022-08-26T15:41:19.726Z,26.03
2022-08-26T15:43:46.137Z,26.10
2022-08-26T15:46:12.556Z,26.09
2022-08-26T15:48:39.760Z,26.12
2022-08-26T15:51:07.464Z,26.12
2022-08-26T15:53:34.083Z,26.07
2022-08-26T15:56:00.827Z,25.95
2022-08-26T15:58:27.702Z,25.94
2022-08-26T16:00:54.664Z,25.83
2022-08-26T16:03:21.026Z,25.62
2022-08-26T16:05:47.431Z,25.66
2022-08-26T16:08:14.211Z,25.28
2022-08-26T16:10:45.456Z,24.95
2022-08-26T16:13:16.064Z,24.57
2022-08-26T16:15:42.589Z,24.46
2022-08-26T16:18:09.186Z,23.98
2022-08-26T16:20:36.178Z,23.78
2022-08-26T16:23:02.615Z,23.53
2022-08-26T16:25:29.113Z,23.48
2022-08-26T16:27:55.480Z,23.58
2022-08-26T16:30:22.014Z,23.43
2022-08-26T16:32:48.576Z,23.00
2022-08-26T16:35:15.191Z,22.95
2022-08-26T16:37:42.021Z,22.99
2022-08-26T16:40:13.113Z,22.82
2022-08-26T16:42:40.563Z,22.72
2022-08-26T16:45:07.216Z,22.53
2022-08-26T16:47:36.795Z,22.56
2022-08-26T16:50:04.322Z,22.55
2022-08-26T16:52:31.463Z,22.63
2022-08-26T16:54:58.565Z,22.62
2022-08-26T16:57:24.911Z,22.68
2022-08-26T16:59:51.325Z,22.64
2022-08-26T17:02:18.180Z,22.82
2022-08-26T17:04:47.184Z,22.76
2022-08-26T17:07:16.647Z,22.85
2022-08-26T17:09:43.086Z,22.76
2022-08-26T17:12:09.679Z,22.76
2022-08-26T17:14:36.067Z,22.75
2022-08-26T17:17:03.137Z,22.69
2022-08-26T17:19:29.491Z,22.61
2022-08-26T17:22:02.965Z,22.74
2022-08-26T17:24:33.103Z,22.63
2022-08-26T17:27:00.393Z,22.57
2022-08-26T17:29:26.806Z,22.51
2022-08-26T17:31:55.491Z,22.54
2022-08-26T17:34:21.896Z,22.53
2022-08-26T17:36:52.867Z,22.46
2022-08-26T17:39:19.283Z,22.57
2022-08-26T17:41:55.893Z,22.50
2022-08-26T17:44:22.325Z,22.51
2022-08-26T17:46:48.702Z,22.53
2022-08-26T17:49:15.557Z,22.41
2022-08-26T17:51:42.210Z,22.18
2022-08-26T17:54:11.731Z,22.11
2022-08-26T17:56:38.402Z,22.03
2022-08-26T17:59:04.750Z,22.03
2022-08-26T18:01:31.290Z,22.01
2022-08-26T18:04:00.454Z,21.86
2022-08-26T18:06:30.898Z,21.74
2022-08-26T18:08:57.858Z,21.61
2022-08-26T18:11:24.672Z,21.45
2022-08-26T18:13:51.345Z,21.30
2022-08-26T18:16:19.345Z,21.43
2022-08-26T18:18:46.498Z,21.25
2022-08-26T18:21:14.020Z,21.18
2022-08-26T18:23:40.365Z,21.19
2022-08-26T18:26:06.855Z,21.04
2022-08-26T18:28:35.366Z,21.18
2022-08-26T18:31:02.522Z,21.17
2022-08-26T18:33:30.147Z,21.09
2022-08-26T18:35:56.525Z,20.93
2022-08-26T18:38:22.887Z,20.95
2022-08-26T18:40:54.892Z,20.84
2022-08-26T18:43:22.037Z,20.85
2022-08-26T18:45:48.559Z,20.66
2022-08-26T18:48:14.977Z,20.57
2022-08-26T18:50:43.853Z,20.51
2022-08-26T18:53:13.451Z,20.52
2022-08-26T18:55:39.992Z,20.41
2022-08-26T18:58:06.414Z,20.37
2022-08-26T19:00:33.269Z,20.22
2022-08-26T19:02:59.827Z,20.26
2022-08-26T19:05:27.347Z,20.21
2022-08-26T19:07:53.691Z,20.25
2022-08-26T19:10:20.649Z,20.23
2022-08-26T19:12:47.023Z,20.26
2022-08-26T19:15:18.356Z,20.11
2022-08-26T19:17:45.054Z,20.12
2022-08-26T19:20:11.432Z,20.13
2022-08-26T19:22:37.784Z,20.19
2022-08-26T19:25:04.208Z,20.15
2022-08-26T19:27:30.583Z,20.14
2022-08-26T19:29:57.611Z,20.16
2022-08-26T19:32:24.306Z,20.12
2022-08-26T19:34:51.340Z,20.16
2022-08-26T19:37:18.328Z,20.13
2022-08-26T19:39:44.740Z,20.22
2022-08-26T19:42:11.087Z,20.15
2022-08-26T19:44:56.309Z,20.11
2022-08-26T19:47:22.699Z,20.06
2022-08-26T19:49:53.053Z,20.02
2022-08-26T19:52:23.155Z,20.06
2022-08-26T19:54:56.452Z,20.10
2022-08-26T19:57:22.840Z,20.03
2022-08-26T19:59:49.283Z,20.02
2022-08-26T20:02:16.192Z,20.11
2022-08-26T20:04:42.744Z,20.00
2022-08-26T20:07:09.123Z,20.06
2022-08-26T20:09:35.550Z,19.99
2022-08-26T20:12:02.626Z,20.04
2022-08-26T20:14:29.810Z,20.08
2022-08-26T20:16:56.272Z,20.13
2022-08-26T20:19:41.501Z,20.02
2022-08-26T20:22:07.947Z,20.15
2022-08-26T20:24:35.036Z,20.20
2022-08-26T20:27:05.493Z,20.11
2022-08-26T20:29:34.652Z,20.08
2022-08-26T20:32:01.094Z,20.16
2022-08-26T20:34:27.866Z,20.08
2022-08-26T20:36:54.255Z,20.12
2022-08-26T20:39:23.678Z,20.18
2022-08-26T20:41:50.060Z,20.23
2022-08-26T20:44:17.552Z,20.26
2022-08-26T20:46:44.019Z,20.33
2022-08-26T20:49:10.396Z,20.30
2022-08-26T20:51:37.409Z,20.29
2022-08-26T20:54:05.003Z,20.27
2022-08-26T20:56:31.380Z,20.33
2022-08-26T20:58:59.134Z,20.22
2022-08-26T21:01:30.428Z,20.16
2022-08-26T21:03:56.941Z,20.18
2022-08-26T21:06:23.400Z,20.13
2022-08-26T21:08:50.199Z,20.08
2022-08-26T21:11:18.011Z,20.05
2022-08-26T21:14:03.900Z,20.03
2022-08-26T21:16:30.636Z,19.99
2022-08-26T21:18:57.607Z,19.92
2022-08-26T21:21:29.878Z,19.81
2022-08-26T21:23:56.254Z,19.88
2022-08-26T21:26:22.741Z,19.86
2022-08-26T21:28:49.171Z,19.82
2022-08-26T21:31:16.639Z,19.87
2022-08-26T21:33:43.044Z,19.85
2022-08-26T21:36:09.642Z,19.84
2022-08-26T21:38:36.870Z,19.87
2022-08-26T21:41:04.601Z,19.85
2022-08-26T21:43:35.062Z,19.71
2022-08-26T21:46:02.747Z,19.59
2022-08-26T21:48:33.205Z,19.45
2022-08-26T21:51:01.110Z,19.43
2022-08-26T21:53:27.482Z,19.33
2022-08-26T21:55:54.128Z,19.24
2022-08-26T21:58:20.482Z,19.36
2022-08-26T22:00:48.161Z,19.32
2022-08-26T22:03:14.665Z,19.18
2022-08-26T22:05:44.540Z,19.23
2022-08-26T22:08:11.107Z,19.13
2022-08-26T22:10:38.441Z,19.22
2022-08-26T22:13:06.342Z,19.22
2022-08-26T22:15:35.335Z,19.14
2022-08-26T22:18:03.474Z,19.24
2022-08-26T22:20:31.039Z,19.33
2022-08-26T22:22:58.637Z,19.24
2022-08-26T22:25:25.347Z,19.20
2022-08-26T22:27:51.717Z,19.24
2022-08-26T22:30:19.755Z,19.25
2022-08-26T22:32:46.579Z,19.21
2022-08-26T22:35:29.242Z,19.02
2022-08-26T22:37:57.259Z,19.07
2022-08-26T22:40:24.328Z,19.03
2022-08-26T22:42:55.740Z,18.97
2022-08-26T22:45:26.909Z,18.86
2022-08-26T22:47:53.299Z,18.84
2022-08-26T22:50:19.695Z,18.81
2022-08-26T22:52:46.059Z,18.77
2022-08-26T22:55:12.444Z,18.67
2022-08-26T22:57:39.006Z,18.75
2022-08-26T23:00:05.878Z,18.66
2022-08-26T23:02:32.297Z,18.62
2022-08-26T23:04:58.675Z,18.55
2022-08-26T23:07:25.049Z,18.55
2022-08-26T23:09:51.404Z,18.56
2022-08-26T23:12:18.047Z,18.62
2022-08-26T23:14:44.415Z,18.59
2022-08-26T23:17:11.198Z,18.58
2022-08-26T23:19:37.582Z,18.44
2022-08-26T23:22:03.972Z,18.41
2022-08-26T23:24:30.364Z,18.33
2022-08-26T23:26:56.737Z,18.32
2022-08-26T23:29:23.095Z,18.39
2022-08-26T23:31:49.528Z,18.37
2022-08-26T23:34:34.461Z,18.30
2022-08-26T23:37:00.998Z,18.33
2022-08-26T23:39:27.444Z,18.32
2022-08-26T23:41:53.872Z,18.19
2022-08-26T23:44:20.729Z,18.07
2022-08-26T23:46:47.123Z,18.07
2022-08-26T23:49:13.524Z,18.05
2022-08-26T23:51:58.576Z,18.00
2022-08-26T23:54:24.945Z,18.05
2022-08-26T23:56:51.338Z,18.05
2022-08-26T23:59:17.705Z,17.94
